Cornucopia Destiny — WDE6386 — position and weather

sailwx.info

Track history (hours):
 
Tides and Currents Weather Stations Pressure Air Temp Water Temp Dewpoint Dewpoint Depression Visibility Wind Speed Wind Dir Waves Ship Positions

Cornucopia Destiny

Owner: Sultan Wholesale LLC, Keyport, NJ. More information available from US FCC via Universal Licensing System and Coast Guard Vessel Documentation Center.

Last reported at 2016-Oct-01 14:33 UTC. Time now 2016-Oct-01 15:33 UTC.
Position N 40°45' W 074°01'.

Length 39 m.

Type: Passenger vessel. MMSI: 367379570.

Date/timePositionNaut miles runAvg speedWind from/ knotsBaromVisibWave heightAir tempDewpointWater temp
2016-Oct-01 14:33N 40°45' W 074°01'0 0.0
2016-Oct-01 13:33N 40°45' W 074°01'0 0.0
2016-Oct-01 04:33N 40°45' W 074°01'0 0.0
2016-Oct-01 03:33N 40°45' W 074°01'0 0.0
2016-Oct-01 00:33N 40°45' W 074°01'0 0.0
2016-Sep-30 22:33N 40°45' W 074°01'0 0.0
2016-Sep-30 20:33N 40°45' W 074°01'0 0.0
2016-Sep-29 23:33N 40°45' W 074°01'0 0.0
2016-Sep-29 21:33N 40°45' W 074°01'0 0.0
2016-Sep-29 20:33N 40°45' W 074°01'0 0.0
2016-Sep-29 19:33N 40°45' W 074°01'0 0.0
2016-Sep-29 00:33N 40°45' W 074°01'0 0.0
2016-Sep-28 21:33N 40°45' W 074°01'3 1.1
2016-Sep-28 19:03N 40°44' W 073°58'3 1.1
2016-Sep-28 16:33N 40°45' W 074°01'0 0.0
2016-Sep-28 15:33N 40°45' W 074°01'0 0.0
2016-Sep-27 23:32N 40°45' W 074°01'0 0.0
2016-Sep-27 19:33N 40°45' W 074°01'0 0.0
2016-Sep-25 21:31N 40°45' W 074°01'3 0.8
2016-Sep-25 17:18N 40°43' W 073°59'2 2.7
2016-Sep-25 16:33N 40°42' W 074°01'3 2.9
2016-Sep-25 15:32N 40°45' W 074°01'0 0.0
2016-Sep-25 14:33N 40°45' W 074°01'0 0.0
2016-Sep-25 04:33N 40°45' W 074°01'3 0.7
2016-Sep-25 00:33N 40°42' W 074°02'1 0.4
2016-Sep-24 22:33N 40°42' W 074°01'3 3.0
2016-Sep-24 21:33N 40°45' W 074°01'1 0.3
2016-Sep-24 19:33N 40°45' W 074°01'0 0.0
2016-Sep-24 18:33N 40°45' W 074°01'0 0.0
2016-Sep-24 17:33N 40°45' W 074°01'0 0.0
2016-Sep-24 16:33N 40°45' W 074°01'0 0.0
2016-Sep-24 03:33N 40°45' W 074°01'1 0.5
2016-Sep-24 02:33N 40°45' W 074°01'3 2.9
2016-Sep-24 01:30N 40°42' W 074°02'2 1.7
2016-Sep-24 00:28N 40°42' W 073°60'3 0.6
2016-Sep-23 19:33N 40°45' W 074°01'0 0.0
2016-Sep-23 17:33N 40°45' W 074°01'0 0.0
2016-Sep-23 16:33N 40°45' W 074°01'0 0.0
2016-Sep-23 15:34N 40°45' W 074°01'0 0.0
2016-Sep-23 13:33N 40°45' W 074°01'  
Track history (hours):
 
Tides and Currents Weather Stations Pressure Air Temp Water Temp Dewpoint Dewpoint Depression Visibility Wind Speed Wind Dir Waves Ship Positions

Cornucopia Destiny

Owner: Sultan Wholesale LLC, Keyport, NJ. More information available from US FCC via Universal Licensing System and Coast Guard Vessel Documentation Center.

Last reported at 2016-Oct-01 14:33 UTC. Time now 2016-Oct-01 15:33 UTC.
Position N 40°45' W 074°01'.

Length 39 m.

Type: Passenger vessel. MMSI: 367379570.

Date/timePositionNaut miles runAvg speedWind from/ knotsBaromVisibWave heightAir tempDewpointWater temp
2016-Oct-01 14:33N 40°45' W 074°01'0 0.0
2016-Oct-01 13:33N 40°45' W 074°01'0 0.0
2016-Oct-01 04:33N 40°45' W 074°01'0 0.0
2016-Oct-01 03:33N 40°45' W 074°01'0 0.0
2016-Oct-01 00:33N 40°45' W 074°01'0 0.0
2016-Sep-30 22:33N 40°45' W 074°01'0 0.0
2016-Sep-30 20:33N 40°45' W 074°01'0 0.0
2016-Sep-29 23:33N 40°45' W 074°01'0 0.0
2016-Sep-29 21:33N 40°45' W 074°01'0 0.0
2016-Sep-29 20:33N 40°45' W 074°01'0 0.0
2016-Sep-29 19:33N 40°45' W 074°01'0 0.0
2016-Sep-29 00:33N 40°45' W 074°01'0 0.0
2016-Sep-28 21:33N 40°45' W 074°01'3 1.1
2016-Sep-28 19:03N 40°44' W 073°58'3 1.1
2016-Sep-28 16:33N 40°45' W 074°01'0 0.0
2016-Sep-28 15:33N 40°45' W 074°01'0 0.0
2016-Sep-27 23:32N 40°45' W 074°01'0 0.0
2016-Sep-27 19:33N 40°45' W 074°01'0 0.0
2016-Sep-25 21:31N 40°45' W 074°01'3 0.8
2016-Sep-25 17:18N 40°43' W 073°59'2 2.7
2016-Sep-25 16:33N 40°42' W 074°01'3 2.9
2016-Sep-25 15:32N 40°45' W 074°01'0 0.0
2016-Sep-25 14:33N 40°45' W 074°01'0 0.0
2016-Sep-25 04:33N 40°45' W 074°01'3 0.7
2016-Sep-25 00:33N 40°42' W 074°02'1 0.4
2016-Sep-24 22:33N 40°42' W 074°01'3 3.0
2016-Sep-24 21:33N 40°45' W 074°01'1 0.3
2016-Sep-24 19:33N 40°45' W 074°01'0 0.0
2016-Sep-24 18:33N 40°45' W 074°01'0 0.0
2016-Sep-24 17:33N 40°45' W 074°01'0 0.0
2016-Sep-24 16:33N 40°45' W 074°01'0 0.0
2016-Sep-24 03:33N 40°45' W 074°01'1 0.5
2016-Sep-24 02:33N 40°45' W 074°01'3 2.9
2016-Sep-24 01:30N 40°42' W 074°02'2 1.7
2016-Sep-24 00:28N 40°42' W 073°60'3 0.6
2016-Sep-23 19:33N 40°45' W 074°01'0 0.0
2016-Sep-23 17:33N 40°45' W 074°01'0 0.0
2016-Sep-23 16:33N 40°45' W 074°01'0 0.0
2016-Sep-23 15:34N 40°45' W 074°01'0 0.0
2016-Sep-23 13:33N 40°45' W 074°01'  

Dump ship's entire track history